createdAt,value
2019-02-23T00:00:25.493Z,6.70
2019-02-23T00:01:25.462Z,7.60
2019-02-23T00:02:25.453Z,7.40
2019-02-23T00:03:25.460Z,7.20
2019-02-23T00:04:25.441Z,6.70
2019-02-23T00:05:25.416Z,7.30
2019-02-23T00:06:29.800Z,7.00
2019-02-23T00:07:25.393Z,6.70
2019-02-23T00:08:25.392Z,7.20
2019-02-23T00:09:25.409Z,7.40
2019-02-23T00:10:25.363Z,6.80
2019-02-23T00:11:25.351Z,7.30
2019-02-23T00:12:25.352Z,7.20
2019-02-23T00:13:25.329Z,7.20
2019-02-23T00:14:25.364Z,7.10
2019-02-23T00:15:25.319Z,6.80
2019-02-23T00:16:25.299Z,7.20
2019-02-23T00:17:25.285Z,7.00
2019-02-23T00:18:25.274Z,6.60
2019-02-23T00:19:25.422Z,7.20
2019-02-23T00:20:25.266Z,7.20
2019-02-23T00:21:25.247Z,6.70
2019-02-23T00:22:25.237Z,6.80
2019-02-23T00:23:25.218Z,6.80
2019-02-23T00:24:25.274Z,6.50
2019-02-23T00:25:25.208Z,7.20
2019-02-23T00:26:25.187Z,6.50
2019-02-23T00:27:25.178Z,6.70
2019-02-23T00:28:25.164Z,6.70
2019-02-23T00:29:25.212Z,6.50
2019-02-23T00:30:25.150Z,6.70
2019-02-23T00:31:25.147Z,6.80
2019-02-23T00:32:25.125Z,7.00
2019-02-23T00:33:25.116Z,6.70
2019-02-23T00:34:25.150Z,7.00
2019-02-23T00:35:25.101Z,7.00
2019-02-23T00:36:25.076Z,6.70
2019-02-23T00:37:25.078Z,7.10
2019-02-23T00:38:25.069Z,6.40
2019-02-23T00:39:25.088Z,6.70
2019-02-23T00:40:25.030Z,6.70
2019-02-23T00:41:25.030Z,6.90
2019-02-23T00:42:25.014Z,6.80
2019-02-23T00:43:25.018Z,6.30
2019-02-23T00:44:25.019Z,6.60
2019-02-23T00:45:24.981Z,7.00
2019-02-23T00:46:24.965Z,7.00
2019-02-23T00:47:25.032Z,6.70
2019-02-23T00:48:24.949Z,6.70
2019-02-23T00:49:35.577Z,6.50
2019-02-23T00:50:25.923Z,6.80
2019-02-23T00:51:24.905Z,6.30
2019-02-23T00:52:24.912Z,6.60
2019-02-23T00:53:24.888Z,6.70
2019-02-23T00:54:24.906Z,6.30
2019-02-23T00:55:24.862Z,6.60
2019-02-23T00:56:24.858Z,7.10
2019-02-23T00:57:24.842Z,6.50
2019-02-23T00:58:24.858Z,7.50
2019-02-23T00:59:24.845Z,6.10
2019-02-23T01:00:24.815Z,6.60
2019-02-23T01:01:24.796Z,6.40
2019-02-23T01:02:24.788Z,7.10
2019-02-23T01:03:24.850Z,7.00
2019-02-23T01:04:24.795Z,6.90
2019-02-23T01:05:24.760Z,7.00
2019-02-23T01:06:24.863Z,6.90
2019-02-23T01:07:24.738Z,7.00
2019-02-23T01:08:24.816Z,6.90
2019-02-23T01:09:24.748Z,6.90
2019-02-23T01:10:24.709Z,7.50
2019-02-23T01:11:24.701Z,6.60
2019-02-23T01:12:24.694Z,7.20
2019-02-23T01:13:24.677Z,6.60
2019-02-23T01:14:24.721Z,7.00
2019-02-23T01:15:24.647Z,6.80
2019-02-23T01:16:24.633Z,6.80
2019-02-23T01:17:24.629Z,6.80
2019-02-23T01:18:24.645Z,7.00
2019-02-23T01:19:24.616Z,7.10
2019-02-23T01:20:24.605Z,7.30
2019-02-23T01:21:24.583Z,7.00
2019-02-23T01:22:24.573Z,7.20
2019-02-23T01:23:24.561Z,7.20
2019-02-23T01:24:24.579Z,7.10
2019-02-23T01:25:24.539Z,7.40
2019-02-23T01:26:24.526Z,7.00
2019-02-23T01:27:24.527Z,7.50
2019-02-23T01:28:24.501Z,7.00
2019-02-23T01:29:24.516Z,7.20
2019-02-23T01:30:24.478Z,7.20
2019-02-23T01:31:24.687Z,7.20
2019-02-23T01:32:24.473Z,7.10
2019-02-23T01:33:24.471Z,6.70
2019-02-23T01:34:24.437Z,6.50
2019-02-23T01:35:24.449Z,7.50
2019-02-23T01:36:24.464Z,7.40
2019-02-23T01:37:24.407Z,7.20
2019-02-23T01:38:24.391Z,7.80
2019-02-23T01:39:24.383Z,7.10
2019-02-23T01:40:24.383Z,7.90
2019-02-23T01:41:24.357Z,7.20
2019-02-23T01:42:24.353Z,7.70
2019-02-23T01:43:24.337Z,7.00
2019-02-23T01:44:24.324Z,7.60
2019-02-23T01:45:24.327Z,7.30
2019-02-23T01:46:24.301Z,7.30
2019-02-23T01:47:24.291Z,7.90
2019-02-23T01:48:24.278Z,7.50
2019-02-23T01:49:24.267Z,8.00
2019-02-23T01:50:24.297Z,7.20
2019-02-23T01:51:24.273Z,6.90
2019-02-23T01:52:24.237Z,7.50
2019-02-23T01:53:24.229Z,7.20
2019-02-23T01:54:24.273Z,6.90
2019-02-23T01:55:24.232Z,6.90
2019-02-23T01:56:24.191Z,7.40
2019-02-23T01:57:24.190Z,6.90
2019-02-23T01:58:24.173Z,7.30
2019-02-23T01:59:24.257Z,7.30
2019-02-23T02:00:24.197Z,7.50
2019-02-23T02:01:24.141Z,7.70
2019-02-23T02:02:24.120Z,7.50
2019-02-23T02:03:24.113Z,8.30
2019-02-23T02:04:24.111Z,7.10
2019-02-23T02:05:24.109Z,7.80
2019-02-23T02:06:24.108Z,7.00
2019-02-23T02:07:24.063Z,7.70
2019-02-23T02:08:24.064Z,7.40
2019-02-23T02:09:24.056Z,8.10
2019-02-23T02:10:24.037Z,7.30
2019-02-23T02:11:24.036Z,7.40
2019-02-23T02:12:24.039Z,7.90
2019-02-23T02:13:24.005Z,8.30
2019-02-23T02:14:23.992Z,7.20
2019-02-23T02:15:24.009Z,7.80
2019-02-23T02:16:23.967Z,7.60
2019-02-23T02:17:24.075Z,8.50
2019-02-23T02:18:23.945Z,8.00
2019-02-23T02:19:23.944Z,7.60
2019-02-23T02:20:23.949Z,7.90
2019-02-23T02:21:23.922Z,7.50
2019-02-23T02:22:23.906Z,7.50
2019-02-23T02:23:23.902Z,7.30
2019-02-23T02:24:23.884Z,7.80
2019-02-23T02:25:23.893Z,7.90
2019-02-23T02:26:23.860Z,7.70
2019-02-23T02:27:23.850Z,7.80
2019-02-23T02:28:23.835Z,7.80
2019-02-23T02:29:23.829Z,7.70
2019-02-23T02:30:23.841Z,8.50
2019-02-23T02:31:23.811Z,8.10
2019-02-23T02:32:23.798Z,7.80
2019-02-23T02:33:23.793Z,8.40
2019-02-23T02:34:23.772Z,7.70
2019-02-23T02:35:23.781Z,7.60
2019-02-23T02:36:23.770Z,7.60
2019-02-23T02:37:23.740Z,8.50
2019-02-23T02:38:23.730Z,7.70
2019-02-23T02:39:23.716Z,8.20
2019-02-23T02:40:24.213Z,8.00
2019-02-23T02:41:23.856Z,7.60
2019-02-23T02:42:23.689Z,8.20
2019-02-23T02:43:23.672Z,8.10
2019-02-23T02:44:23.661Z,8.60
2019-02-23T02:45:23.672Z,8.20
2019-02-23T02:46:23.654Z,8.30
2019-02-23T02:47:23.630Z,8.00
2019-02-23T02:48:23.626Z,8.90
2019-02-23T02:49:23.607Z,8.20
2019-02-23T02:50:24.906Z,8.10
2019-02-23T02:51:23.583Z,8.90
2019-02-23T02:52:23.575Z,7.90
2019-02-23T02:53:23.573Z,8.60
2019-02-23T02:54:23.575Z,7.90
2019-02-23T02:55:23.566Z,8.30
2019-02-23T02:56:23.538Z,7.90
2019-02-23T02:57:23.545Z,8.20
2019-02-23T02:58:23.509Z,8.90
2019-02-23T02:59:23.503Z,8.40
2019-02-23T03:00:23.505Z,8.80
2019-02-23T03:01:23.475Z,8.40
2019-02-23T03:02:23.474Z,8.40
2019-02-23T03:03:23.446Z,8.70
2019-02-23T03:04:23.447Z,8.80
2019-02-23T03:05:23.460Z,8.20
2019-02-23T03:06:23.485Z,8.10
2019-02-23T03:07:23.414Z,8.80
2019-02-23T03:08:23.479Z,8.70
2019-02-23T03:09:23.388Z,8.60
2019-02-23T03:10:23.475Z,8.30
2019-02-23T03:11:23.365Z,8.90
2019-02-23T03:12:23.355Z,8.50
2019-02-23T03:13:23.353Z,9.00
2019-02-23T03:14:23.329Z,8.30
2019-02-23T03:15:23.358Z,9.00
2019-02-23T03:16:23.314Z,9.00
2019-02-23T03:17:23.295Z,8.90
2019-02-23T03:18:23.344Z,9.50
2019-02-23T03:19:23.291Z,8.60
2019-02-23T03:20:24.926Z,8.50
2019-02-23T03:21:24.252Z,8.70
2019-02-23T03:22:23.244Z,9.20
2019-02-23T03:23:23.238Z,9.30
2019-02-23T03:24:23.217Z,9.00
2019-02-23T03:25:23.236Z,9.20
2019-02-23T03:26:23.200Z,8.60
2019-02-23T03:27:23.190Z,8.90
2019-02-23T03:28:23.179Z,9.60
2019-02-23T03:29:23.218Z,8.90
2019-02-23T03:30:23.186Z,9.50
2019-02-23T03:31:23.157Z,9.20
2019-02-23T03:32:23.134Z,10.10
2019-02-23T03:33:23.128Z,9.10
2019-02-23T03:34:23.110Z,8.70
2019-02-23T03:35:23.119Z,9.10
2019-02-23T03:36:23.091Z,9.10
2019-02-23T03:37:23.075Z,9.60
2019-02-23T03:38:23.072Z,9.60
2019-02-23T03:39:23.070Z,9.30
2019-02-23T03:40:23.079Z,10.20
2019-02-23T03:41:23.101Z,10.00
2019-02-23T03:42:23.027Z,9.80
2019-02-23T03:43:23.012Z,9.40
2019-02-23T03:44:23.008Z,9.80
2019-02-23T03:45:22.989Z,9.40
2019-02-23T03:46:22.993Z,9.80
2019-02-23T03:47:22.967Z,9.70
2019-02-23T03:48:22.959Z,9.80
2019-02-23T03:49:22.951Z,8.80
2019-02-23T03:50:22.945Z,9.90
2019-02-23T03:51:22.948Z,9.70
2019-02-23T03:52:22.919Z,9.70
2019-02-23T03:53:22.900Z,10.30
2019-02-23T03:54:22.893Z,10.00
2019-02-23T03:55:22.884Z,9.60
2019-02-23T03:56:22.881Z,10.10
2019-02-23T03:57:22.853Z,9.90
2019-02-23T03:58:22.854Z,9.40
2019-02-23T03:59:22.836Z,10.60
2019-02-23T04:00:22.831Z,10.10
2019-02-23T04:01:22.849Z,9.90
2019-02-23T04:02:22.830Z,9.60
2019-02-23T04:03:22.791Z,9.70
2019-02-23T04:04:22.787Z,9.90
2019-02-23T04:05:22.772Z,9.60
2019-02-23T04:06:22.779Z,10.10
2019-02-23T04:07:22.749Z,9.40
2019-02-23T04:08:22.738Z,10.30
2019-02-23T04:09:22.734Z,10.20
2019-02-23T04:10:22.709Z,10.70
2019-02-23T04:11:22.722Z,9.80
2019-02-23T04:12:22.695Z,10.40
2019-02-23T04:13:22.688Z,10.30
2019-02-23T04:14:22.670Z,10.20
2019-02-23T04:15:22.659Z,9.80
2019-02-23T04:16:22.668Z,10.70
2019-02-23T04:17:22.658Z,10.60
2019-02-23T04:18:22.627Z,10.10
2019-02-23T04:19:22.801Z,10.70
2019-02-23T04:20:22.601Z,10.60
2019-02-23T04:21:22.608Z,10.10
2019-02-23T04:22:22.589Z,10.60
2019-02-23T04:23:22.583Z,9.90
2019-02-23T04:24:22.668Z,10.80
2019-02-23T04:25:22.556Z,10.90
2019-02-23T04:26:22.555Z,10.40
2019-02-23T04:27:22.522Z,11.20
2019-02-23T04:28:22.516Z,10.50
2019-02-23T04:29:22.672Z,10.40
2019-02-23T04:30:22.491Z,10.50
2019-02-23T04:31:22.502Z,11.00
2019-02-23T04:32:22.476Z,11.70
2019-02-23T04:33:22.457Z,10.90
2019-02-23T04:34:22.521Z,11.10
2019-02-23T04:35:22.449Z,9.80
2019-02-23T04:36:22.454Z,11.20
2019-02-23T04:37:22.423Z,11.10
2019-02-23T04:38:22.401Z,11.10
2019-02-23T04:39:22.588Z,10.90
2019-02-23T04:40:22.393Z,10.90
2019-02-23T04:41:22.548Z,11.40
2019-02-23T04:42:22.363Z,11.00
2019-02-23T04:43:22.363Z,11.00
2019-02-23T04:44:22.433Z,11.30
2019-02-23T04:45:22.347Z,11.50
2019-02-23T04:46:22.340Z,10.70
2019-02-23T04:47:22.304Z,10.60
2019-02-23T04:48:22.295Z,11.50
2019-02-23T04:49:22.289Z,10.90
2019-02-23T04:50:22.293Z,11.00
2019-02-23T04:51:22.287Z,11.00
2019-02-23T04:52:22.254Z,11.50
2019-02-23T04:53:22.236Z,11.60
2019-02-23T04:54:22.231Z,10.90
2019-02-23T04:55:22.220Z,10.90
2019-02-23T04:56:22.220Z,10.70
2019-02-23T04:57:22.196Z,10.30
2019-02-23T04:58:22.201Z,10.80
2019-02-23T04:59:22.174Z,10.80
2019-02-23T05:00:22.169Z,9.90
2019-02-23T05:01:22.182Z,11.00
2019-02-23T05:02:22.158Z,11.10
2019-02-23T05:03:22.137Z,10.30
2019-02-23T05:04:22.140Z,10.40
2019-02-23T05:05:22.110Z,10.80
2019-02-23T05:06:22.202Z,10.60
2019-02-23T05:07:22.124Z,10.40
2019-02-23T05:08:22.075Z,11.60
2019-02-23T05:09:22.071Z,11.30
2019-02-23T05:10:22.050Z,11.20
2019-02-23T05:11:22.055Z,11.20
2019-02-23T05:12:22.061Z,10.80
2019-02-23T05:13:22.016Z,10.90
2019-02-23T05:14:22.008Z,10.50
2019-02-23T05:15:22.001Z,11.00
2019-02-23T05:16:22.027Z,11.30
2019-02-23T05:17:21.974Z,10.80
2019-02-23T05:18:21.967Z,11.70
2019-02-23T05:19:21.966Z,10.70
2019-02-23T05:20:21.953Z,10.20
2019-02-23T05:21:26.403Z,10.50
2019-02-23T05:22:24.196Z,10.40
2019-02-23T05:23:21.909Z,10.30
2019-02-23T05:24:21.913Z,10.50
2019-02-23T05:25:21.897Z,10.40
2019-02-23T05:26:21.905Z,10.20
2019-02-23T05:27:21.883Z,10.40
2019-02-23T05:28:21.879Z,10.60
2019-02-23T05:29:21.843Z,10.90
2019-02-23T05:30:21.832Z,11.50
2019-02-23T05:31:22.289Z,11.50
2019-02-23T05:32:21.814Z,11.00
2019-02-23T05:33:21.824Z,11.20
2019-02-23T05:34:21.790Z,11.40
2019-02-23T05:35:21.787Z,10.70
2019-02-23T05:36:21.765Z,10.50
2019-02-23T05:37:21.803Z,10.80
2019-02-23T05:38:21.757Z,11.50
2019-02-23T05:39:21.747Z,10.50
2019-02-23T05:40:21.728Z,10.90
2019-02-23T05:41:21.719Z,11.00
2019-02-23T05:42:21.729Z,10.20
2019-02-23T05:43:21.705Z,10.50
2019-02-23T05:44:21.685Z,11.10
2019-02-23T05:45:21.671Z,10.80
2019-02-23T05:46:21.654Z,11.20
2019-02-23T05:47:21.681Z,10.50
2019-02-23T05:48:21.634Z,11.10
2019-02-23T05:49:21.629Z,12.00
2019-02-23T05:50:21.613Z,11.40
2019-02-23T05:51:21.603Z,10.60
2019-02-23T05:52:21.757Z,10.90
2019-02-23T05:53:21.584Z,11.40
2019-02-23T05:54:21.573Z,10.50
2019-02-23T05:55:21.565Z,10.80
2019-02-23T05:56:21.554Z,11.40
2019-02-23T05:57:21.729Z,11.20
2019-02-23T05:58:21.533Z,11.30
2019-02-23T05:59:21.513Z,11.90
2019-02-23T06:00:21.507Z,11.70
2019-02-23T06:01:21.494Z,10.80
2019-02-23T06:02:21.520Z,11.30
2019-02-23T06:03:21.482Z,11.80
2019-02-23T06:04:21.469Z,11.90
2019-02-23T06:05:21.449Z,11.50
2019-02-23T06:06:21.445Z,10.90
2019-02-23T06:07:21.501Z,12.00
2019-02-23T06:08:21.429Z,11.50
2019-02-23T06:09:21.402Z,12.10
2019-02-23T06:10:21.395Z,11.60
2019-02-23T06:11:21.387Z,12.40
2019-02-23T06:12:21.399Z,11.60
2019-02-23T06:13:21.359Z,11.50
2019-02-23T06:14:21.353Z,11.60
2019-02-23T06:15:21.372Z,11.80
2019-02-23T06:16:21.329Z,11.40
2019-02-23T06:17:21.339Z,11.40
2019-02-23T06:18:21.310Z,11.80
2019-02-23T06:19:21.298Z,11.90
2019-02-23T06:20:21.285Z,11.90
2019-02-23T06:21:21.273Z,12.50
2019-02-23T06:22:21.281Z,11.50
2019-02-23T06:23:21.252Z,12.20
2019-02-23T06:24:21.369Z,13.10
2019-02-23T06:25:21.241Z,12.30
2019-02-23T06:26:21.215Z,11.60
2019-02-23T06:27:21.225Z,11.60
2019-02-23T06:28:21.222Z,12.40
2019-02-23T06:29:21.193Z,12.00
2019-02-23T06:30:21.172Z,12.00
2019-02-23T06:31:21.181Z,12.90
2019-02-23T06:32:21.199Z,11.50
2019-02-23T06:33:21.144Z,12.30
2019-02-23T06:34:21.129Z,12.40
2019-02-23T06:35:21.121Z,11.90
2019-02-23T06:36:21.111Z,11.80
2019-02-23T06:37:21.119Z,11.10
2019-02-23T06:38:21.096Z,12.30
2019-02-23T06:39:21.083Z,12.60
2019-02-23T06:40:21.065Z,11.60
2019-02-23T06:41:21.049Z,11.40
2019-02-23T06:42:21.067Z,12.30
2019-02-23T06:43:21.043Z,12.40
2019-02-23T06:44:21.025Z,12.10
2019-02-23T06:45:21.021Z,12.00
2019-02-23T06:46:21.695Z,12.20
2019-02-23T06:47:21.016Z,12.40
2019-02-23T06:48:20.985Z,12.10
2019-02-23T06:49:20.966Z,12.50
2019-02-23T06:50:20.955Z,11.80
2019-02-23T06:51:20.988Z,12.40
2019-02-23T06:52:20.968Z,12.00
2019-02-23T06:53:20.923Z,12.50
2019-02-23T06:54:20.921Z,12.10
2019-02-23T06:55:20.898Z,11.60
2019-02-23T06:56:21.014Z,12.80
2019-02-23T06:57:20.907Z,12.50
2019-02-23T06:58:20.902Z,13.20
2019-02-23T06:59:20.858Z,12.70
2019-02-23T07:00:20.867Z,12.80
2019-02-23T07:01:20.839Z,13.00
2019-02-23T07:02:20.931Z,12.50
2019-02-23T07:03:20.832Z,12.70
2019-02-23T07:04:20.802Z,12.90
2019-02-23T07:05:20.802Z,12.40
2019-02-23T07:06:20.796Z,12.90
2019-02-23T07:07:20.806Z,12.40
2019-02-23T07:08:20.785Z,14.50
2019-02-23T07:09:20.773Z,13.00
2019-02-23T07:10:20.749Z,12.50
2019-02-23T07:11:20.728Z,13.20
2019-02-23T07:12:20.732Z,13.00
2019-02-23T07:13:20.699Z,12.90
2019-02-23T07:14:20.775Z,14.30
2019-02-23T07:15:20.672Z,13.50
2019-02-23T07:16:20.674Z,13.60
2019-02-23T07:17:20.694Z,13.30
2019-02-23T07:18:20.677Z,13.00
2019-02-23T07:19:20.643Z,13.10
2019-02-23T07:20:20.627Z,13.90
2019-02-23T07:21:20.616Z,12.50
2019-02-23T07:22:20.605Z,12.90
2019-02-23T07:23:20.621Z,12.70
2019-02-23T07:24:20.578Z,12.60
2019-02-23T07:25:20.578Z,12.60
2019-02-23T07:26:20.582Z,13.90
2019-02-23T07:27:20.547Z,13.40
2019-02-23T07:28:20.561Z,12.70
2019-02-23T07:29:20.541Z,13.40
2019-02-23T07:30:20.513Z,12.70
2019-02-23T07:31:20.525Z,13.40
2019-02-23T07:32:20.491Z,14.20
2019-02-23T07:33:32.380Z,13.80
2019-02-23T07:34:21.502Z,13.80
2019-02-23T07:35:20.480Z,12.60
2019-02-23T07:36:20.450Z,13.90
2019-02-23T07:37:20.466Z,13.90
2019-02-23T07:38:20.473Z,12.40
2019-02-23T07:39:20.414Z,13.90
2019-02-23T07:40:20.913Z,13.80
2019-02-23T07:41:20.417Z,13.60
2019-02-23T07:42:20.389Z,13.90
2019-02-23T07:43:20.423Z,13.10
2019-02-23T07:44:20.364Z,13.70
2019-02-23T07:45:20.341Z,13.50
2019-02-23T07:46:20.379Z,13.30
2019-02-23T07:47:20.326Z,13.30
2019-02-23T07:48:20.365Z,13.00
2019-02-23T07:49:20.338Z,13.30
2019-02-23T07:50:20.305Z,14.00
2019-02-23T07:51:20.282Z,13.40
2019-02-23T07:52:26.343Z,12.90
2019-02-23T07:53:21.292Z,14.00
2019-02-23T07:54:20.261Z,13.80
2019-02-23T07:55:20.249Z,13.60
2019-02-23T07:56:20.229Z,13.80
2019-02-23T07:57:20.220Z,12.80
2019-02-23T07:58:20.229Z,14.20
2019-02-23T07:59:20.230Z,13.30
2019-02-23T08:00:20.226Z,13.50
2019-02-23T08:01:20.171Z,12.60
2019-02-23T08:02:20.199Z,13.10
2019-02-23T08:03:20.157Z,13.10
2019-02-23T08:04:20.167Z,13.00
2019-02-23T08:05:20.174Z,12.70
2019-02-23T08:06:20.152Z,12.20
2019-02-23T08:07:20.114Z,13.40
2019-02-23T08:08:20.132Z,12.80
2019-02-23T08:09:20.097Z,11.50
2019-02-23T08:10:20.095Z,12.30
2019-02-23T08:11:20.111Z,12.20
2019-02-23T08:12:20.065Z,11.70
2019-02-23T08:13:20.071Z,12.00
2019-02-23T08:14:20.033Z,11.90
2019-02-23T08:15:20.032Z,12.90
2019-02-23T08:16:20.031Z,12.80
2019-02-23T08:17:20.010Z,12.30
2019-02-23T08:18:20.026Z,12.20
2019-02-23T08:19:19.983Z,12.00
2019-02-23T08:20:19.968Z,11.90
2019-02-23T08:21:19.966Z,11.90
2019-02-23T08:22:19.972Z,12.60
2019-02-23T08:23:19.973Z,12.20
2019-02-23T08:24:19.916Z,12.50
2019-02-23T08:25:19.905Z,12.40
2019-02-23T08:26:19.911Z,12.40
2019-02-23T08:27:19.902Z,12.20
2019-02-23T08:28:19.916Z,13.40
2019-02-23T08:29:19.871Z,12.20
2019-02-23T08:30:19.852Z,12.50
2019-02-23T08:31:19.848Z,12.20
2019-02-23T08:32:19.859Z,12.00
2019-02-23T08:33:19.862Z,12.40
2019-02-23T08:34:19.812Z,11.90
2019-02-23T08:35:19.820Z,11.60
2019-02-23T08:36:19.785Z,11.40
2019-02-23T08:37:19.860Z,11.20
2019-02-23T08:38:19.774Z,10.50
2019-02-23T08:39:19.782Z,11.10
2019-02-23T08:40:19.751Z,11.20
2019-02-23T08:41:19.739Z,11.00
2019-02-23T08:42:19.717Z,11.50
2019-02-23T08:43:20.779Z,10.90
2019-02-23T08:44:19.717Z,11.10
2019-02-23T08:45:19.712Z,11.70
2019-02-23T08:46:19.675Z,11.10
2019-02-23T08:47:19.661Z,11.30
2019-02-23T08:48:19.944Z,11.80
2019-02-23T08:49:19.682Z,12.00
2019-02-23T08:50:19.656Z,11.40
2019-02-23T08:51:19.650Z,10.80
2019-02-23T08:52:19.711Z,11.40
2019-02-23T08:54:20.701Z,11.30
2019-02-23T08:55:19.585Z,11.60
2019-02-23T08:56:19.576Z,10.90
2019-02-23T08:57:19.631Z,10.70
2019-02-23T08:58:19.556Z,11.40
2019-02-23T08:59:19.548Z,10.50
2019-02-23T09:00:19.518Z,10.80
2019-02-23T09:01:19.520Z,11.20
2019-02-23T09:02:19.523Z,11.20
2019-02-23T09:03:19.498Z,10.90
2019-02-23T09:04:19.531Z,10.30
2019-02-23T09:05:19.468Z,11.30
2019-02-23T09:06:19.459Z,10.60
2019-02-23T09:08:20.602Z,10.70
2019-02-23T09:09:19.625Z,10.60
2019-02-23T09:10:19.591Z,11.00
2019-02-23T09:11:19.582Z,10.30
2019-02-23T09:12:19.877Z,10.00
2019-02-23T09:13:19.622Z,10.90
2019-02-23T09:14:20.258Z,10.20
2019-02-23T09:15:22.051Z,10.30
2019-02-23T09:16:19.369Z,10.40
2019-02-23T09:17:19.334Z,10.00
2019-02-23T09:18:19.345Z,10.00
2019-02-23T09:19:19.334Z,11.10
2019-02-23T09:20:28.688Z,10.30
2019-02-23T09:21:20.303Z,10.90
2019-02-23T09:22:19.276Z,10.20
2019-02-23T09:23:19.271Z,10.40
2019-02-23T09:24:19.298Z,10.50
2019-02-23T09:25:19.259Z,9.90
2019-02-23T09:26:19.326Z,9.80
2019-02-23T09:27:19.215Z,9.40
2019-02-23T09:28:19.210Z,10.40
2019-02-23T09:29:19.226Z,9.60
2019-02-23T09:30:19.194Z,9.80
2019-02-23T09:31:19.186Z,10.00
2019-02-23T09:32:19.214Z,10.00
2019-02-23T09:33:19.148Z,9.30
2019-02-23T09:34:19.159Z,9.60
2019-02-23T09:35:19.134Z,9.50
2019-02-23T09:36:19.131Z,9.10
2019-02-23T09:37:19.118Z,9.70
2019-02-23T09:38:19.101Z,9.90
2019-02-23T09:39:19.151Z,9.30
2019-02-23T09:40:19.077Z,9.90
2019-02-23T09:41:19.071Z,9.40
2019-02-23T09:42:19.069Z,9.40
2019-02-23T09:43:19.052Z,9.90
2019-02-23T09:44:19.070Z,9.90
2019-02-23T09:45:19.018Z,9.30
2019-02-23T09:46:19.013Z,8.90
2019-02-23T09:47:18.999Z,9.50
2019-02-23T09:48:19.001Z,8.90
2019-02-23T09:49:19.008Z,8.90
2019-02-23T09:50:18.987Z,8.60
2019-02-23T09:51:18.968Z,9.20
2019-02-23T09:52:18.939Z,8.70
2019-02-23T09:53:18.935Z,8.80
2019-02-23T09:54:18.914Z,9.30
2019-02-23T09:55:18.927Z,8.90
2019-02-23T09:56:18.892Z,9.10
2019-02-23T09:57:18.891Z,9.20
2019-02-23T09:58:18.866Z,8.80
2019-02-23T09:59:18.870Z,8.80
2019-02-23T10:00:18.876Z,8.70
2019-02-23T10:01:18.830Z,8.50
2019-02-23T10:02:18.825Z,9.20
2019-02-23T10:03:18.817Z,8.50
2019-02-23T10:04:18.806Z,8.50
2019-02-23T10:05:18.817Z,8.10
2019-02-23T10:06:18.783Z,8.80
2019-02-23T10:07:18.766Z,8.80
2019-02-23T10:08:18.757Z,8.70
2019-02-23T10:09:18.747Z,8.70
2019-02-23T10:10:18.758Z,8.40
2019-02-23T10:11:18.725Z,8.80
2019-02-23T10:12:18.714Z,8.40
2019-02-23T10:13:18.705Z,8.30
2019-02-23T10:14:18.701Z,7.90
2019-02-23T10:15:18.711Z,7.80
2019-02-23T10:16:18.677Z,9.10
2019-02-23T10:17:18.660Z,8.10
2019-02-23T10:18:18.648Z,8.30
2019-02-23T10:19:18.635Z,7.90
2019-02-23T10:20:18.638Z,8.60
2019-02-23T10:21:18.611Z,8.90
2019-02-23T10:22:18.611Z,7.90
2019-02-23T10:23:22.129Z,7.70
2019-02-23T10:24:18.580Z,8.60
2019-02-23T10:25:18.587Z,8.00
2019-02-23T10:26:18.552Z,8.30
2019-02-23T10:27:18.555Z,8.20
2019-02-23T10:28:18.766Z,7.80
2019-02-23T10:29:18.531Z,7.90
2019-02-23T10:30:18.532Z,8.30
2019-02-23T10:31:18.503Z,7.80
2019-02-23T10:32:18.530Z,7.90
2019-02-23T10:33:18.543Z,8.00
2019-02-23T10:34:18.462Z,8.10
2019-02-23T10:35:18.471Z,8.20
2019-02-23T10:36:18.470Z,7.70
2019-02-23T10:37:18.431Z,8.40
2019-02-23T10:38:18.422Z,8.00
2019-02-23T10:39:18.424Z,8.00
2019-02-23T10:40:18.501Z,8.10
2019-02-23T10:41:18.390Z,7.60
2019-02-23T10:42:18.434Z,8.60
2019-02-23T10:43:18.379Z,8.50
2019-02-23T10:44:18.353Z,8.30
2019-02-23T10:45:18.358Z,8.00
2019-02-23T10:46:18.334Z,7.90
2019-02-23T10:47:18.322Z,7.60
2019-02-23T10:48:18.311Z,7.80
2019-02-23T10:49:18.292Z,7.70
2019-02-23T10:50:18.294Z,8.30
2019-02-23T10:51:18.273Z,7.80
2019-02-23T10:52:18.267Z,7.90
2019-02-23T10:53:18.281Z,9.00
2019-02-23T10:54:18.232Z,11.00
2019-02-23T10:55:18.248Z,13.60
2019-02-23T10:56:18.213Z,11.80
2019-02-23T10:57:18.205Z,9.90
2019-02-23T10:58:18.201Z,8.40
2019-02-23T10:59:18.183Z,8.10
2019-02-23T11:00:18.190Z,8.20
2019-02-23T11:01:18.159Z,8.20
2019-02-23T11:02:18.151Z,8.00
2019-02-23T11:03:18.132Z,7.60
2019-02-23T11:04:18.122Z,7.30
2019-02-23T11:05:18.130Z,7.20
2019-02-23T11:06:18.103Z,7.60
2019-02-23T11:07:18.098Z,7.70
2019-02-23T11:08:18.083Z,7.10
2019-02-23T11:09:18.067Z,8.00
2019-02-23T11:10:18.222Z,6.90
2019-02-23T11:11:18.053Z,6.70
2019-02-23T11:12:18.036Z,7.40
2019-02-23T11:13:18.032Z,6.80
2019-02-23T11:14:18.032Z,6.80
2019-02-23T11:15:18.018Z,7.30
2019-02-23T11:16:17.993Z,6.40
2019-02-23T11:17:17.986Z,6.60
2019-02-23T11:18:17.999Z,6.90
2019-02-23T11:19:17.957Z,6.60
2019-02-23T11:20:17.954Z,6.50
2019-02-23T11:21:17.951Z,6.60
2019-02-23T11:22:17.924Z,6.40
2019-02-23T11:23:17.918Z,6.70
2019-02-23T11:24:18.509Z,6.80
2019-02-23T11:25:17.892Z,6.90
2019-02-23T11:26:17.951Z,7.10
2019-02-23T11:27:17.868Z,7.10
2019-02-23T11:28:17.855Z,7.20
2019-02-23T11:29:17.842Z,6.70
2019-02-23T11:30:17.840Z,6.90
2019-02-23T11:31:17.849Z,8.60
2019-02-23T11:32:17.812Z,6.90
2019-02-23T11:33:17.872Z,6.50
2019-02-23T11:34:17.788Z,6.00
2019-02-23T11:35:18.023Z,6.20
2019-02-23T11:36:17.788Z,6.50
2019-02-23T11:37:17.757Z,6.20
2019-02-23T11:38:17.749Z,7.10
2019-02-23T11:39:17.741Z,7.00
2019-02-23T11:40:17.727Z,6.90
2019-02-23T11:41:17.727Z,7.10
2019-02-23T11:42:17.705Z,6.70
2019-02-23T11:43:17.686Z,6.60
2019-02-23T11:44:17.680Z,6.80
2019-02-23T11:45:17.664Z,7.20
2019-02-23T11:46:17.682Z,6.80
2019-02-23T11:47:17.644Z,7.20
2019-02-23T11:48:17.633Z,7.10
2019-02-23T11:49:17.630Z,6.60
2019-02-23T11:50:17.611Z,7.00
2019-02-23T11:51:17.634Z,6.90
2019-02-23T11:52:17.586Z,6.60
2019-02-23T11:53:17.581Z,6.50
2019-02-23T11:54:17.562Z,6.90
2019-02-23T11:55:17.556Z,7.30
2019-02-23T11:56:17.564Z,8.50
2019-02-23T11:57:17.541Z,7.20
2019-02-23T11:58:17.520Z,7.00
2019-02-23T11:59:17.516Z,7.40
2019-02-23T12:00:17.520Z,7.10
2019-02-23T12:01:17.505Z,7.00
2019-02-23T12:02:17.475Z,7.10
2019-02-23T12:03:17.464Z,7.40
2019-02-23T12:04:17.453Z,7.50
2019-02-23T12:05:17.444Z,7.20
2019-02-23T12:06:17.462Z,7.40
2019-02-23T12:07:17.415Z,7.40
2019-02-23T12:08:17.566Z,7.10
2019-02-23T12:09:17.408Z,6.90
2019-02-23T12:10:17.390Z,7.40
2019-02-23T12:11:17.414Z,7.10
2019-02-23T12:12:17.370Z,7.40
2019-02-23T12:13:17.351Z,7.20
2019-02-23T12:14:17.353Z,7.30
2019-02-23T12:15:17.334Z,7.90
2019-02-23T12:16:17.359Z,7.40
2019-02-23T12:17:17.317Z,7.30
2019-02-23T12:18:17.300Z,6.30
2019-02-23T12:19:17.297Z,7.00
2019-02-23T12:20:17.289Z,7.40
2019-02-23T12:21:17.294Z,7.10
2019-02-23T12:22:17.258Z,7.40
2019-02-23T12:23:17.239Z,7.30
2019-02-23T12:24:17.228Z,7.30
2019-02-23T12:25:17.218Z,7.10
2019-02-23T12:26:17.226Z,7.70
2019-02-23T12:27:17.198Z,7.40
2019-02-23T12:28:17.190Z,7.50
2019-02-23T12:29:17.178Z,7.90
2019-02-23T12:30:17.180Z,7.20
2019-02-23T12:31:17.170Z,6.90
2019-02-23T12:32:17.148Z,7.00
2019-02-23T12:33:17.132Z,7.30
2019-02-23T12:34:17.121Z,7.80
2019-02-23T12:35:17.106Z,7.40
2019-02-23T12:36:17.114Z,7.50
2019-02-23T12:37:17.103Z,7.60
2019-02-23T12:38:17.071Z,7.70
2019-02-23T12:39:17.068Z,8.50
2019-02-23T12:40:17.054Z,7.80
2019-02-23T12:41:17.069Z,7.90
2019-02-23T12:42:17.026Z,7.80
2019-02-23T12:43:17.023Z,7.80
2019-02-23T12:44:17.005Z,7.90
2019-02-23T12:45:17.001Z,8.30
2019-02-23T12:46:17.766Z,7.30
2019-02-23T12:47:16.972Z,8.00
2019-02-23T12:48:16.959Z,8.00
2019-02-23T12:49:16.954Z,8.60
2019-02-23T12:50:16.934Z,9.90
2019-02-23T12:51:16.941Z,10.20
2019-02-23T12:52:17.357Z,8.70
2019-02-23T12:53:16.910Z,9.10
2019-02-23T12:54:17.241Z,7.50
2019-02-23T12:55:16.898Z,7.60
2019-02-23T12:56:16.896Z,8.50
2019-02-23T12:57:16.868Z,6.70
2019-02-23T12:58:16.850Z,7.40
2019-02-23T12:59:16.834Z,7.00
2019-02-23T13:00:16.973Z,6.50
2019-02-23T13:01:16.823Z,6.10
2019-02-23T13:02:16.824Z,6.50
2019-02-23T13:03:16.800Z,6.60
2019-02-23T13:04:16.788Z,7.20
2019-02-23T13:05:16.790Z,7.10
2019-02-23T13:06:16.772Z,6.90
2019-02-23T13:07:16.996Z,7.40
2019-02-23T13:08:16.742Z,6.90
2019-02-23T13:09:16.726Z,7.20